MMRX/REX METAR and TAF weather

Enter ICAO airport designator
Station Type Date Time Source
MMRX METAR 2021/07/26 11:51 UTC NOAA

MMRX 261151Z 00000KT 3SM BR SKC 23/21 A2995 RMK SLP137 5//// 955 RTS


Station Type Date Time Source
MMRX Decoded METAR 2021/07/26 11:51 UTC NOAA

Reynosa International Airport , Mexico (MMRX) 26-01N 098-14W
Jul 26, 2021 - 07:51 AM EDT / 2021.07.26 1151 UTC
Wind: Calm:0
Visibility: 3 mile(s):0
Sky conditions: clear
Weather: mist
Temperature: 73 F (23 C)
Dew Point: 69 F (21 C)
Relative Humidity: 88%
Pressure (altimeter): 29.95 in. Hg (1014 hPa)
ob: MMRX 261151Z 00000KT 3SM BR SKC 23/21 A2995 RMK SLP137 5//// 955 RTS
cycle: 12

Station Type Date Time Source
MMRX TAF 2021/07/26 06:12 UTC NOAA

TAF MMRX 260405Z 2606/2706 14008KT P6SM SCT030
TEMPO 2611/2615 5SM HZ BKN015
FM261800 14014KT P6SM BKN020
FM270500 14007KT P6SM SCT020

Example: see airport list